sensor_id;sensor_type;location;lat;lon;timestamp;P1;durP1;ratioP1;P2;durP2;ratioP2
22737;SDS011;11536;50.860;4.286;2023-04-24T00:01:41;13.40;;;6.18;;
22737;SDS011;11536;50.860;4.286;2023-04-24T00:04:07;14.23;;;5.80;;
22737;SDS011;11536;50.860;4.286;2023-04-24T00:06:35;13.50;;;6.72;;
22737;SDS011;11536;50.860;4.286;2023-04-24T00:09:02;13.25;;;6.00;;
22737;SDS011;11536;50.860;4.286;2023-04-24T00:11:28;14.98;;;6.70;;
22737;SDS011;11536;50.860;4.286;2023-04-24T00:13:55;13.07;;;6.65;;
22737;SDS011;11536;50.860;4.286;2023-04-24T00:16:21;16.27;;;6.68;;
22737;SDS011;11536;50.860;4.286;2023-04-24T00:18:47;14.30;;;6.45;;
22737;SDS011;11536;50.860;4.286;2023-04-24T00:21:13;13.40;;;6.88;;
22737;SDS011;11536;50.860;4.286;2023-04-24T00:23:41;16.65;;;7.00;;
22737;SDS011;11536;50.860;4.286;2023-04-24T00:26:06;22.75;;;6.75;;
22737;SDS011;11536;50.860;4.286;2023-04-24T00:28:32;12.18;;;6.03;;
22737;SDS011;11536;50.860;4.286;2023-04-24T00:30:57;12.00;;;6.28;;
22737;SDS011;11536;50.860;4.286;2023-04-24T00:33:23;13.88;;;5.82;;
22737;SDS011;11536;50.860;4.286;2023-04-24T00:35:49;11.57;;;5.53;;
22737;SDS011;11536;50.860;4.286;2023-04-24T00:38:14;14.52;;;6.20;;
22737;SDS011;11536;50.860;4.286;2023-04-24T00:40:40;12.32;;;6.10;;
22737;SDS011;11536;50.860;4.286;2023-04-24T00:43:06;15.25;;;6.53;;
22737;SDS011;11536;50.860;4.286;2023-04-24T00:45:31;13.85;;;6.63;;
22737;SDS011;11536;50.860;4.286;2023-04-24T00:47:57;13.05;;;7.00;;
22737;SDS011;11536;50.860;4.286;2023-04-24T00:50:23;16.98;;;6.85;;
22737;SDS011;11536;50.860;4.286;2023-04-24T00:52:49;12.82;;;6.47;;
22737;SDS011;11536;50.860;4.286;2023-04-24T00:55:15;19.33;;;7.35;;
22737;SDS011;11536;50.860;4.286;2023-04-24T00:57:41;14.63;;;6.57;;
22737;SDS011;11536;50.860;4.286;2023-04-24T01:00:08;19.08;;;6.35;;
22737;SDS011;11536;50.860;4.286;2023-04-24T01:02:38;13.52;;;6.88;;
22737;SDS011;11536;50.860;4.286;2023-04-24T01:05:08;16.75;;;6.82;;
22737;SDS011;11536;50.860;4.286;2023-04-24T01:07:34;12.88;;;7.38;;
22737;SDS011;11536;50.860;4.286;2023-04-24T01:10:01;12.32;;;6.47;;
22737;SDS011;11536;50.860;4.286;2023-04-24T01:12:27;15.38;;;6.63;;
22737;SDS011;11536;50.860;4.286;2023-04-24T01:14:53;12.57;;;6.68;;
22737;SDS011;11536;50.860;4.286;2023-04-24T01:17:20;13.18;;;5.75;;
22737;SDS011;11536;50.860;4.286;2023-04-24T01:19:46;15.88;;;7.07;;
22737;SDS011;11536;50.860;4.286;2023-04-24T01:22:15;17.15;;;6.25;;
22737;SDS011;11536;50.860;4.286;2023-04-24T01:24:41;14.65;;;6.60;;
22737;SDS011;11536;50.860;4.286;2023-04-24T01:27:08;13.63;;;6.15;;
22737;SDS011;11536;50.860;4.286;2023-04-24T01:29:35;14.95;;;6.28;;
22737;SDS011;11536;50.860;4.286;2023-04-24T01:32:00;12.43;;;5.95;;
22737;SDS011;11536;50.860;4.286;2023-04-24T01:34:27;13.35;;;6.40;;
22737;SDS011;11536;50.860;4.286;2023-04-24T01:36:53;11.88;;;5.82;;
22737;SDS011;11536;50.860;4.286;2023-04-24T01:39:19;11.88;;;5.60;;
22737;SDS011;11536;50.860;4.286;2023-04-24T01:41:45;10.88;;;5.10;;
22737;SDS011;11536;50.860;4.286;2023-04-24T01:44:11;11.30;;;5.07;;
22737;SDS011;11536;50.860;4.286;2023-04-24T01:46:37;13.38;;;4.90;;
22737;SDS011;11536;50.860;4.286;2023-04-24T01:49:03;9.73;;;5.30;;
22737;SDS011;11536;50.860;4.286;2023-04-24T01:51:29;12.13;;;5.53;;
22737;SDS011;11536;50.860;4.286;2023-04-24T01:53:55;9.30;;;5.10;;
22737;SDS011;11536;50.860;4.286;2023-04-24T01:56:21;9.93;;;4.82;;
22737;SDS011;11536;50.860;4.286;2023-04-24T01:58:48;11.82;;;5.13;;
22737;SDS011;11536;50.860;4.286;2023-04-24T02:01:21;10.55;;;5.18;;
22737;SDS011;11536;50.860;4.286;2023-04-24T02:03:49;12.02;;;5.85;;
22737;SDS011;11536;50.860;4.286;2023-04-24T02:06:14;11.13;;;6.00;;
22737;SDS011;11536;50.860;4.286;2023-04-24T02:08:40;11.25;;;5.78;;
22737;SDS011;11536;50.860;4.286;2023-04-24T02:11:06;12.00;;;4.93;;
22737;SDS011;11536;50.860;4.286;2023-04-24T02:13:34;9.55;;;5.00;;
22737;SDS011;11536;50.860;4.286;2023-04-24T02:15:59;12.85;;;6.00;;
22737;SDS011;11536;50.860;4.286;2023-04-24T02:18:25;10.50;;;6.07;;
22737;SDS011;11536;50.860;4.286;2023-04-24T02:20:51;13.82;;;6.25;;
22737;SDS011;11536;50.860;4.286;2023-04-24T02:23:16;14.15;;;5.63;;
22737;SDS011;11536;50.860;4.286;2023-04-24T02:25:42;12.43;;;5.25;;
22737;SDS011;11536;50.860;4.286;2023-04-24T02:28:08;12.25;;;5.78;;
22737;SDS011;11536;50.860;4.286;2023-04-24T02:30:33;11.73;;;6.07;;
22737;SDS011;11536;50.860;4.286;2023-04-24T02:32:59;9.30;;;5.10;;
22737;SDS011;11536;50.860;4.286;2023-04-24T02:35:25;10.93;;;5.38;;
22737;SDS011;11536;50.860;4.286;2023-04-24T02:37:50;11.90;;;5.38;;
22737;SDS011;11536;50.860;4.286;2023-04-24T02:40:16;8.98;;;4.63;;
22737;SDS011;11536;50.860;4.286;2023-04-24T02:42:41;13.00;;;5.13;;
22737;SDS011;11536;50.860;4.286;2023-04-24T02:45:07;10.65;;;5.10;;
22737;SDS011;11536;50.860;4.286;2023-04-24T02:47:33;11.60;;;4.88;;
22737;SDS011;11536;50.860;4.286;2023-04-24T02:49:59;11.27;;;5.25;;
22737;SDS011;11536;50.860;4.286;2023-04-24T02:52:24;10.30;;;5.10;;
22737;SDS011;11536;50.860;4.286;2023-04-24T02:54:50;12.52;;;5.13;;
22737;SDS011;11536;50.860;4.286;2023-04-24T02:57:16;10.35;;;4.82;;
22737;SDS011;11536;50.860;4.286;2023-04-24T02:59:41;10.45;;;5.05;;
22737;SDS011;11536;50.860;4.286;2023-04-24T03:02:07;15.55;;;6.10;;
22737;SDS011;11536;50.860;4.286;2023-04-24T03:04:33;11.70;;;5.57;;
22737;SDS011;11536;50.860;4.286;2023-04-24T03:06:58;11.55;;;5.15;;
22737;SDS011;11536;50.860;4.286;2023-04-24T03:09:24;11.45;;;5.00;;
22737;SDS011;11536;50.860;4.286;2023-04-24T03:11:50;11.27;;;5.03;;
22737;SDS011;11536;50.860;4.286;2023-04-24T03:14:15;11.55;;;5.30;;
22737;SDS011;11536;50.860;4.286;2023-04-24T03:16:41;10.68;;;4.70;;
22737;SDS011;11536;50.860;4.286;2023-04-24T03:19:07;12.23;;;4.22;;
22737;SDS011;11536;50.860;4.286;2023-04-24T03:21:33;8.57;;;4.15;;
22737;SDS011;11536;50.860;4.286;2023-04-24T03:24:00;8.65;;;3.95;;
22737;SDS011;11536;50.860;4.286;2023-04-24T03:26:26;9.15;;;4.07;;
22737;SDS011;11536;50.860;4.286;2023-04-24T03:28:51;8.32;;;3.92;;
22737;SDS011;11536;50.860;4.286;2023-04-24T03:31:17;9.98;;;3.80;;
22737;SDS011;11536;50.860;4.286;2023-04-24T03:33:44;10.13;;;4.40;;
22737;SDS011;11536;50.860;4.286;2023-04-24T03:36:09;6.57;;;3.15;;
22737;SDS011;11536;50.860;4.286;2023-04-24T03:38:35;8.55;;;3.75;;
22737;SDS011;11536;50.860;4.286;2023-04-24T03:41:00;8.55;;;3.80;;
22737;SDS011;11536;50.860;4.286;2023-04-24T03:43:26;12.70;;;4.40;;
22737;SDS011;11536;50.860;4.286;2023-04-24T03:45:52;7.45;;;3.65;;
22737;SDS011;11536;50.860;4.286;2023-04-24T03:48:18;6.38;;;3.20;;
22737;SDS011;11536;50.860;4.286;2023-04-24T03:50:43;7.43;;;3.53;;
22737;SDS011;11536;50.860;4.286;2023-04-24T03:53:09;8.05;;;3.05;;
22737;SDS011;11536;50.860;4.286;2023-04-24T03:55:35;6.75;;;2.92;;
22737;SDS011;11536;50.860;4.286;2023-04-24T03:58:00;7.10;;;3.25;;
22737;SDS011;11536;50.860;4.286;2023-04-24T04:00:26;6.75;;;3.08;;
22737;SDS011;11536;50.860;4.286;2023-04-24T04:02:52;6.85;;;2.75;;
22737;SDS011;11536;50.860;4.286;2023-04-24T04:05:18;6.65;;;3.00;;
22737;SDS011;11536;50.860;4.286;2023-04-24T04:07:43;6.43;;;2.80;;
22737;SDS011;11536;50.860;4.286;2023-04-24T04:10:09;6.60;;;2.60;;
22737;SDS011;11536;50.860;4.286;2023-04-24T04:12:35;7.50;;;3.10;;
22737;SDS011;11536;50.860;4.286;2023-04-24T04:15:00;7.05;;;2.55;;
22737;SDS011;11536;50.860;4.286;2023-04-24T04:17:26;7.78;;;2.97;;
22737;SDS011;11536;50.860;4.286;2023-04-24T04:19:52;6.47;;;2.60;;
22737;SDS011;11536;50.860;4.286;2023-04-24T04:22:17;6.40;;;2.50;;
22737;SDS011;11536;50.860;4.286;2023-04-24T04:24:43;6.03;;;2.75;;
22737;SDS011;11536;50.860;4.286;2023-04-24T04:27:09;6.88;;;2.30;;
22737;SDS011;11536;50.860;4.286;2023-04-24T04:29:35;6.05;;;2.45;;
22737;SDS011;11536;50.860;4.286;2023-04-24T04:32:01;4.75;;;2.20;;
22737;SDS011;11536;50.860;4.286;2023-04-24T04:34:27;8.57;;;3.05;;
22737;SDS011;11536;50.860;4.286;2023-04-24T04:36:54;7.20;;;2.90;;
22737;SDS011;11536;50.860;4.286;2023-04-24T04:39:20;7.15;;;2.90;;
22737;SDS011;11536;50.860;4.286;2023-04-24T04:41:46;7.07;;;2.70;;
22737;SDS011;11536;50.860;4.286;2023-04-24T04:44:14;8.40;;;3.35;;
22737;SDS011;11536;50.860;4.286;2023-04-24T04:46:40;11.50;;;4.45;;
22737;SDS011;11536;50.860;4.286;2023-04-24T04:49:06;10.38;;;4.88;;
22737;SDS011;11536;50.860;4.286;2023-04-24T04:51:33;11.48;;;4.55;;
22737;SDS011;11536;50.860;4.286;2023-04-24T04:53:59;6.78;;;3.67;;
22737;SDS011;11536;50.860;4.286;2023-04-24T04:56:25;10.23;;;4.68;;
22737;SDS011;11536;50.860;4.286;2023-04-24T04:58:51;12.27;;;4.78;;
22737;SDS011;11536;50.860;4.286;2023-04-24T05:01:16;10.15;;;4.03;;
22737;SDS011;11536;50.860;4.286;2023-04-24T05:03:42;12.48;;;5.63;;
22737;SDS011;11536;50.860;4.286;2023-04-24T05:06:08;9.73;;;5.30;;
22737;SDS011;11536;50.860;4.286;2023-04-24T05:08:33;11.00;;;4.80;;
22737;SDS011;11536;50.860;4.286;2023-04-24T05:10:59;9.75;;;5.15;;
22737;SDS011;11536;50.860;4.286;2023-04-24T05:13:25;11.38;;;5.40;;
22737;SDS011;11536;50.860;4.286;2023-04-24T05:15:51;8.88;;;4.75;;
22737;SDS011;11536;50.860;4.286;2023-04-24T05:18:16;12.02;;;5.25;;
22737;SDS011;11536;50.860;4.286;2023-04-24T05:20:43;10.88;;;5.25;;
22737;SDS011;11536;50.860;4.286;2023-04-24T05:23:09;13.38;;;5.35;;
22737;SDS011;11536;50.860;4.286;2023-04-24T05:25:35;11.32;;;5.07;;
22737;SDS011;11536;50.860;4.286;2023-04-24T05:28:01;11.15;;;5.43;;
22737;SDS011;11536;50.860;4.286;2023-04-24T05:30:27;10.65;;;4.90;;
22737;SDS011;11536;50.860;4.286;2023-04-24T05:32:53;13.95;;;5.18;;
22737;SDS011;11536;50.860;4.286;2023-04-24T05:35:22;11.95;;;5.85;;
22737;SDS011;11536;50.860;4.286;2023-04-24T05:37:47;10.88;;;5.47;;
22737;SDS011;11536;50.860;4.286;2023-04-24T05:40:13;13.10;;;5.40;;
22737;SDS011;11536;50.860;4.286;2023-04-24T05:42:39;11.43;;;5.25;;
22737;SDS011;11536;50.860;4.286;2023-04-24T05:45:05;10.95;;;5.20;;
22737;SDS011;11536;50.860;4.286;2023-04-24T05:47:31;12.52;;;5.93;;
22737;SDS011;11536;50.860;4.286;2023-04-24T05:49:56;11.68;;;5.65;;
22737;SDS011;11536;50.860;4.286;2023-04-24T05:52:22;12.38;;;4.72;;
22737;SDS011;11536;50.860;4.286;2023-04-24T05:54:47;14.95;;;5.88;;
22737;SDS011;11536;50.860;4.286;2023-04-24T05:57:13;14.82;;;5.55;;
22737;SDS011;11536;50.860;4.286;2023-04-24T05:59:40;12.85;;;5.55;;
22737;SDS011;11536;50.860;4.286;2023-04-24T06:02:06;11.93;;;5.22;;
22737;SDS011;11536;50.860;4.286;2023-04-24T06:04:32;11.02;;;5.75;;
22737;SDS011;11536;50.860;4.286;2023-04-24T06:06:58;10.20;;;4.45;;
22737;SDS011;11536;50.860;4.286;2023-04-24T06:09:24;12.80;;;5.65;;
22737;SDS011;11536;50.860;4.286;2023-04-24T06:11:50;12.13;;;6.00;;
22737;SDS011;11536;50.860;4.286;2023-04-24T06:14:19;15.32;;;5.82;;
22737;SDS011;11536;50.860;4.286;2023-04-24T06:16:46;12.32;;;5.88;;
22737;SDS011;11536;50.860;4.286;2023-04-24T06:19:11;16.80;;;6.10;;
22737;SDS011;11536;50.860;4.286;2023-04-24T06:21:37;13.85;;;6.13;;
22737;SDS011;11536;50.860;4.286;2023-04-24T06:24:02;12.50;;;6.10;;
22737;SDS011;11536;50.860;4.286;2023-04-24T06:26:29;11.30;;;5.20;;
22737;SDS011;11536;50.860;4.286;2023-04-24T06:28:55;12.77;;;6.15;;
22737;SDS011;11536;50.860;4.286;2023-04-24T06:31:20;11.48;;;5.70;;
22737;SDS011;11536;50.860;4.286;2023-04-24T06:33:47;15.60;;;7.03;;
22737;SDS011;11536;50.860;4.286;2023-04-24T06:36:14;13.18;;;6.53;;
22737;SDS011;11536;50.860;4.286;2023-04-24T06:38:40;16.08;;;6.22;;
22737;SDS011;11536;50.860;4.286;2023-04-24T06:41:06;16.65;;;7.20;;
22737;SDS011;11536;50.860;4.286;2023-04-24T06:43:32;14.80;;;6.47;;
22737;SDS011;11536;50.860;4.286;2023-04-24T06:45:59;17.35;;;6.70;;
22737;SDS011;11536;50.860;4.286;2023-04-24T06:48:25;14.35;;;7.50;;
22737;SDS011;11536;50.860;4.286;2023-04-24T06:50:51;16.67;;;6.93;;
22737;SDS011;11536;50.860;4.286;2023-04-24T06:53:17;16.25;;;7.10;;
22737;SDS011;11536;50.860;4.286;2023-04-24T06:55:43;15.20;;;6.88;;
22737;SDS011;11536;50.860;4.286;2023-04-24T06:58:11;15.05;;;6.60;;
22737;SDS011;11536;50.860;4.286;2023-04-24T07:00:37;13.50;;;6.65;;
22737;SDS011;11536;50.860;4.286;2023-04-24T07:03:03;14.75;;;7.25;;
22737;SDS011;11536;50.860;4.286;2023-04-24T07:05:30;13.65;;;7.35;;
22737;SDS011;11536;50.860;4.286;2023-04-24T07:07:59;15.15;;;7.18;;
22737;SDS011;11536;50.860;4.286;2023-04-24T07:10:25;18.60;;;7.95;;
22737;SDS011;11536;50.860;4.286;2023-04-24T07:12:53;18.60;;;7.32;;
22737;SDS011;11536;50.860;4.286;2023-04-24T07:15:19;18.42;;;7.30;;
22737;SDS011;11536;50.860;4.286;2023-04-24T07:17:45;15.82;;;7.03;;
22737;SDS011;11536;50.860;4.286;2023-04-24T07:20:11;16.85;;;7.70;;
22737;SDS011;11536;50.860;4.286;2023-04-24T07:22:37;19.25;;;6.70;;
22737;SDS011;11536;50.860;4.286;2023-04-24T07:25:03;16.88;;;7.22;;
22737;SDS011;11536;50.860;4.286;2023-04-24T07:27:29;13.15;;;6.25;;
22737;SDS011;11536;50.860;4.286;2023-04-24T07:29:55;13.98;;;5.65;;
22737;SDS011;11536;50.860;4.286;2023-04-24T07:32:21;13.48;;;5.68;;
22737;SDS011;11536;50.860;4.286;2023-04-24T07:34:46;17.10;;;6.18;;
22737;SDS011;11536;50.860;4.286;2023-04-24T07:37:12;15.23;;;5.78;;
22737;SDS011;11536;50.860;4.286;2023-04-24T07:39:38;14.48;;;6.20;;
22737;SDS011;11536;50.860;4.286;2023-04-24T07:42:03;11.73;;;5.63;;
22737;SDS011;11536;50.860;4.286;2023-04-24T07:44:29;14.85;;;5.88;;
22737;SDS011;11536;50.860;4.286;2023-04-24T07:46:55;15.73;;;6.43;;
22737;SDS011;11536;50.860;4.286;2023-04-24T07:49:21;17.52;;;7.00;;
22737;SDS011;11536;50.860;4.286;2023-04-24T07:51:47;13.43;;;6.55;;
22737;SDS011;11536;50.860;4.286;2023-04-24T07:54:12;15.65;;;6.15;;
22737;SDS011;11536;50.860;4.286;2023-04-24T07:56:38;14.38;;;6.05;;
22737;SDS011;11536;50.860;4.286;2023-04-24T07:59:04;13.98;;;5.30;;
22737;SDS011;11536;50.860;4.286;2023-04-24T08:01:30;13.60;;;5.63;;
22737;SDS011;11536;50.860;4.286;2023-04-24T08:03:56;14.48;;;5.63;;
22737;SDS011;11536;50.860;4.286;2023-04-24T08:06:21;13.43;;;5.65;;
22737;SDS011;11536;50.860;4.286;2023-04-24T08:08:47;13.13;;;4.65;;
22737;SDS011;11536;50.860;4.286;2023-04-24T08:11:13;17.17;;;5.55;;
22737;SDS011;11536;50.860;4.286;2023-04-24T08:13:39;16.20;;;5.65;;
22737;SDS011;11536;50.860;4.286;2023-04-24T08:16:04;15.05;;;5.72;;
22737;SDS011;11536;50.860;4.286;2023-04-24T08:18:30;14.57;;;5.28;;
22737;SDS011;11536;50.860;4.286;2023-04-24T08:20:56;11.63;;;4.90;;
22737;SDS011;11536;50.860;4.286;2023-04-24T08:23:26;9.77;;;4.43;;
22737;SDS011;11536;50.860;4.286;2023-04-24T08:25:52;11.45;;;4.25;;
22737;SDS011;11536;50.860;4.286;2023-04-24T08:28:17;12.68;;;4.57;;
22737;SDS011;11536;50.860;4.286;2023-04-24T08:30:45;13.80;;;5.03;;
22737;SDS011;11536;50.860;4.286;2023-04-24T08:33:19;10.68;;;4.30;;
22737;SDS011;11536;50.860;4.286;2023-04-24T08:35:48;10.00;;;4.35;;
22737;SDS011;11536;50.860;4.286;2023-04-24T08:38:14;12.30;;;4.35;;
22737;SDS011;11536;50.860;4.286;2023-04-24T08:40:40;10.95;;;4.78;;
22737;SDS011;11536;50.860;4.286;2023-04-24T08:43:06;14.35;;;4.50;;
22737;SDS011;11536;50.860;4.286;2023-04-24T08:45:33;10.02;;;4.22;;
22737;SDS011;11536;50.860;4.286;2023-04-24T08:47:58;12.43;;;4.25;;
22737;SDS011;11536;50.860;4.286;2023-04-24T08:50:28;7.75;;;3.30;;
22737;SDS011;11536;50.860;4.286;2023-04-24T08:52:54;12.40;;;4.10;;
22737;SDS011;11536;50.860;4.286;2023-04-24T08:55:21;11.38;;;3.40;;
22737;SDS011;11536;50.860;4.286;2023-04-24T08:57:50;12.80;;;3.70;;
22737;SDS011;11536;50.860;4.286;2023-04-24T09:00:21;12.38;;;4.10;;
22737;SDS011;11536;50.860;4.286;2023-04-24T09:02:49;9.88;;;3.53;;
22737;SDS011;11536;50.860;4.286;2023-04-24T09:05:18;9.77;;;2.92;;
22737;SDS011;11536;50.860;4.286;2023-04-24T09:07:45;7.88;;;3.53;;
22737;SDS011;11536;50.860;4.286;2023-04-24T09:10:22;7.78;;;2.92;;
22737;SDS011;11536;50.860;4.286;2023-04-24T09:12:50;9.73;;;3.20;;
22737;SDS011;11536;50.860;4.286;2023-04-24T09:15:18;6.90;;;2.63;;
22737;SDS011;11536;50.860;4.286;2023-04-24T09:17:45;8.02;;;3.00;;
22737;SDS011;11536;50.860;4.286;2023-04-24T09:20:11;10.23;;;2.40;;
22737;SDS011;11536;50.860;4.286;2023-04-24T09:22:37;7.93;;;3.05;;
22737;SDS011;11536;50.860;4.286;2023-04-24T09:25:04;8.82;;;3.00;;
22737;SDS011;11536;50.860;4.286;2023-04-24T09:27:32;7.55;;;2.42;;
22737;SDS011;11536;50.860;4.286;2023-04-24T09:30:02;10.80;;;2.40;;
22737;SDS011;11536;50.860;4.286;2023-04-24T09:32:28;8.85;;;2.53;;
22737;SDS011;11536;50.860;4.286;2023-04-24T09:35:06;9.10;;;2.70;;
22737;SDS011;11536;50.860;4.286;2023-04-24T09:37:37;7.30;;;2.13;;
22737;SDS011;11536;50.860;4.286;2023-04-24T09:40:10;6.53;;;2.25;;
22737;SDS011;11536;50.860;4.286;2023-04-24T09:42:37;6.25;;;2.38;;
22737;SDS011;11536;50.860;4.286;2023-04-24T09:45:04;5.75;;;2.50;;
22737;SDS011;11536;50.860;4.286;2023-04-24T09:47:40;6.18;;;2.45;;
22737;SDS011;11536;50.860;4.286;2023-04-24T09:50:10;7.35;;;2.60;;
22737;SDS011;11536;50.860;4.286;2023-04-24T09:52:41;7.72;;;2.83;;
22737;SDS011;11536;50.860;4.286;2023-04-24T09:55:44;8.52;;;2.38;;
22737;SDS011;11536;50.860;4.286;2023-04-24T09:58:13;7.60;;;2.88;;
22737;SDS011;11536;50.860;4.286;2023-04-24T10:00:38;6.35;;;2.38;;
22737;SDS011;11536;50.860;4.286;2023-04-24T10:03:05;8.63;;;2.83;;
22737;SDS011;11536;50.860;4.286;2023-04-24T10:05:37;8.10;;;2.70;;
22737;SDS011;11536;50.860;4.286;2023-04-24T10:08:09;6.72;;;2.40;;
22737;SDS011;11536;50.860;4.286;2023-04-24T10:10:43;9.48;;;2.60;;
22737;SDS011;11536;50.860;4.286;2023-04-24T10:15:39;6.20;;;2.20;;
22737;SDS011;11536;50.860;4.286;2023-04-24T10:18:06;6.32;;;2.40;;
22737;SDS011;11536;50.860;4.286;2023-04-24T10:20:34;6.57;;;2.45;;
22737;SDS011;11536;50.860;4.286;2023-04-24T10:23:01;6.03;;;2.55;;
22737;SDS011;11536;50.860;4.286;2023-04-24T10:25:28;11.02;;;3.30;;
22737;SDS011;11536;50.860;4.286;2023-04-24T10:27:56;6.45;;;2.35;;
22737;SDS011;11536;50.860;4.286;2023-04-24T10:30:24;6.97;;;2.67;;
22737;SDS011;11536;50.860;4.286;2023-04-24T10:32:51;7.05;;;2.80;;
22737;SDS011;11536;50.860;4.286;2023-04-24T10:35:17;7.20;;;2.65;;
22737;SDS011;11536;50.860;4.286;2023-04-24T10:40:19;7.25;;;2.90;;
22737;SDS011;11536;50.860;4.286;2023-04-24T10:42:58;11.40;;;3.28;;
22737;SDS011;11536;50.860;4.286;2023-04-24T10:45:25;7.47;;;2.60;;
22737;SDS011;11536;50.860;4.286;2023-04-24T10:47:57;9.65;;;2.78;;
22737;SDS011;11536;50.860;4.286;2023-04-24T10:50:26;7.38;;;2.75;;
22737;SDS011;11536;50.860;4.286;2023-04-24T10:52:55;12.20;;;3.50;;
22737;SDS011;11536;50.860;4.286;2023-04-24T10:58:08;10.23;;;3.15;;
22737;SDS011;11536;50.860;4.286;2023-04-24T11:00:38;6.70;;;3.15;;
22737;SDS011;11536;50.860;4.286;2023-04-24T11:03:21;9.32;;;3.42;;
22737;SDS011;11536;50.860;4.286;2023-04-24T11:05:59;8.23;;;2.95;;
22737;SDS011;11536;50.860;4.286;2023-04-24T11:11:08;8.80;;;2.95;;
22737;SDS011;11536;50.860;4.286;2023-04-24T11:29:42;6.50;;;2.60;;
22737;SDS011;11536;50.860;4.286;2023-04-24T11:32:24;9.65;;;3.33;;
22737;SDS011;11536;50.860;4.286;2023-04-24T11:37:36;9.63;;;3.13;;
22737;SDS011;11536;50.860;4.286;2023-04-24T11:42:35;7.75;;;3.50;;
22737;SDS011;11536;50.860;4.286;2023-04-24T11:45:06;9.18;;;3.35;;
22737;SDS011;11536;50.860;4.286;2023-04-24T11:47:58;9.70;;;4.07;;
22737;SDS011;11536;50.860;4.286;2023-04-24T11:50:25;7.88;;;3.05;;
22737;SDS011;11536;50.860;4.286;2023-04-24T11:52:52;7.05;;;3.08;;
22737;SDS011;11536;50.860;4.286;2023-04-24T11:57:45;8.35;;;3.47;;
22737;SDS011;11536;50.860;4.286;2023-04-24T12:00:18;8.13;;;3.58;;
22737;SDS011;11536;50.860;4.286;2023-04-24T12:02:46;11.23;;;3.15;;
22737;SDS011;11536;50.860;4.286;2023-04-24T12:05:24;7.38;;;3.05;;
22737;SDS011;11536;50.860;4.286;2023-04-24T12:07:51;10.75;;;3.22;;
22737;SDS011;11536;50.860;4.286;2023-04-24T12:10:24;7.68;;;3.10;;
22737;SDS011;11536;50.860;4.286;2023-04-24T12:12:55;8.32;;;3.88;;
22737;SDS011;11536;50.860;4.286;2023-04-24T12:15:21;9.07;;;3.60;;
22737;SDS011;11536;50.860;4.286;2023-04-24T12:17:47;7.75;;;3.28;;
22737;SDS011;11536;50.860;4.286;2023-04-24T12:20:16;9.73;;;3.33;;
22737;SDS011;11536;50.860;4.286;2023-04-24T12:22:51;8.00;;;2.72;;
22737;SDS011;11536;50.860;4.286;2023-04-24T12:25:30;6.90;;;3.13;;
22737;SDS011;11536;50.860;4.286;2023-04-24T12:30:29;5.57;;;2.63;;
22737;SDS011;11536;50.860;4.286;2023-04-24T12:32:59;6.22;;;2.70;;
22737;SDS011;11536;50.860;4.286;2023-04-24T12:35:27;6.47;;;2.67;;
22737;SDS011;11536;50.860;4.286;2023-04-24T12:37:53;5.72;;;2.60;;
22737;SDS011;11536;50.860;4.286;2023-04-24T12:40:20;6.10;;;2.75;;
22737;SDS011;11536;50.860;4.286;2023-04-24T12:42:47;7.43;;;3.20;;
22737;SDS011;11536;50.860;4.286;2023-04-24T12:45:14;7.85;;;2.97;;
22737;SDS011;11536;50.860;4.286;2023-04-24T12:47:42;5.88;;;2.40;;
22737;SDS011;11536;50.860;4.286;2023-04-24T12:50:09;5.18;;;2.50;;
22737;SDS011;11536;50.860;4.286;2023-04-24T12:52:36;7.90;;;2.10;;
22737;SDS011;11536;50.860;4.286;2023-04-24T12:55:02;5.97;;;2.70;;
22737;SDS011;11536;50.860;4.286;2023-04-24T12:57:29;5.00;;;2.28;;
22737;SDS011;11536;50.860;4.286;2023-04-24T12:59:56;5.45;;;2.40;;
22737;SDS011;11536;50.860;4.286;2023-04-24T13:02:23;5.65;;;2.80;;
22737;SDS011;11536;50.860;4.286;2023-04-24T13:04:51;7.50;;;2.70;;
22737;SDS011;11536;50.860;4.286;2023-04-24T13:07:17;5.10;;;2.60;;
22737;SDS011;11536;50.860;4.286;2023-04-24T13:09:43;5.28;;;2.20;;
22737;SDS011;11536;50.860;4.286;2023-04-24T13:12:09;6.72;;;2.05;;
22737;SDS011;11536;50.860;4.286;2023-04-24T13:14:36;5.57;;;1.77;;
22737;SDS011;11536;50.860;4.286;2023-04-24T13:17:02;4.95;;;2.17;;
22737;SDS011;11536;50.860;4.286;2023-04-24T13:19:28;5.13;;;2.03;;
22737;SDS011;11536;50.860;4.286;2023-04-24T13:21:55;5.95;;;1.67;;
22737;SDS011;11536;50.860;4.286;2023-04-24T13:24:22;5.65;;;1.90;;
22737;SDS011;11536;50.860;4.286;2023-04-24T13:26:52;3.85;;;1.67;;
22737;SDS011;11536;50.860;4.286;2023-04-24T13:29:18;6.93;;;2.03;;
22737;SDS011;11536;50.860;4.286;2023-04-24T13:31:43;4.78;;;1.50;;
22737;SDS011;11536;50.860;4.286;2023-04-24T13:34:09;5.22;;;1.90;;
22737;SDS011;11536;50.860;4.286;2023-04-24T13:36:35;4.88;;;1.95;;
22737;SDS011;11536;50.860;4.286;2023-04-24T13:39:01;4.75;;;1.55;;
22737;SDS011;11536;50.860;4.286;2023-04-24T13:41:29;6.68;;;1.73;;
22737;SDS011;11536;50.860;4.286;2023-04-24T13:43:55;4.25;;;1.65;;
22737;SDS011;11536;50.860;4.286;2023-04-24T13:46:21;8.43;;;2.03;;
22737;SDS011;11536;50.860;4.286;2023-04-24T13:48:46;5.78;;;1.80;;
22737;SDS011;11536;50.860;4.286;2023-04-24T13:51:12;3.80;;;1.52;;
22737;SDS011;11536;50.860;4.286;2023-04-24T13:53:38;5.65;;;1.48;;
22737;SDS011;11536;50.860;4.286;2023-04-24T13:56:04;3.22;;;1.40;;
22737;SDS011;11536;50.860;4.286;2023-04-24T13:58:30;4.32;;;1.38;;
22737;SDS011;11536;50.860;4.286;2023-04-24T14:00:57;4.38;;;1.17;;
22737;SDS011;11536;50.860;4.286;2023-04-24T14:03:23;3.90;;;1.10;;
22737;SDS011;11536;50.860;4.286;2023-04-24T14:05:48;4.82;;;1.13;;
22737;SDS011;11536;50.860;4.286;2023-04-24T14:08:14;4.30;;;1.20;;
22737;SDS011;11536;50.860;4.286;2023-04-24T14:10:40;3.65;;;1.40;;
22737;SDS011;11536;50.860;4.286;2023-04-24T14:13:06;2.75;;;1.13;;
22737;SDS011;11536;50.860;4.286;2023-04-24T14:15:31;3.22;;;1.02;;
22737;SDS011;11536;50.860;4.286;2023-04-24T14:17:57;3.88;;;1.10;;
22737;SDS011;11536;50.860;4.286;2023-04-24T14:20:23;4.78;;;0.90;;
22737;SDS011;11536;50.860;4.286;2023-04-24T14:22:49;2.38;;;0.90;;
22737;SDS011;11536;50.860;4.286;2023-04-24T14:25:14;4.72;;;1.10;;
22737;SDS011;11536;50.860;4.286;2023-04-24T14:27:40;6.72;;;1.35;;
22737;SDS011;11536;50.860;4.286;2023-04-24T14:30:06;3.88;;;1.30;;
22737;SDS011;11536;50.860;4.286;2023-04-24T14:32:32;5.80;;;1.25;;
22737;SDS011;11536;50.860;4.286;2023-04-24T14:34:58;4.72;;;1.10;;
22737;SDS011;11536;50.860;4.286;2023-04-24T14:37:24;3.42;;;1.00;;
22737;SDS011;11536;50.860;4.286;2023-04-24T14:39:49;4.75;;;1.25;;
22737;SDS011;11536;50.860;4.286;2023-04-24T14:42:15;3.78;;;1.33;;
22737;SDS011;11536;50.860;4.286;2023-04-24T14:44:42;5.05;;;1.25;;
22737;SDS011;11536;50.860;4.286;2023-04-24T14:47:07;3.22;;;1.10;;
22737;SDS011;11536;50.860;4.286;2023-04-24T14:49:33;2.55;;;1.10;;
22737;SDS011;11536;50.860;4.286;2023-04-24T14:51:59;3.83;;;1.15;;
22737;SDS011;11536;50.860;4.286;2023-04-24T14:54:25;3.25;;;1.13;;
22737;SDS011;11536;50.860;4.286;2023-04-24T14:56:51;4.32;;;1.30;;
22737;SDS011;11536;50.860;4.286;2023-04-24T14:59:22;3.60;;;1.20;;
22737;SDS011;11536;50.860;4.286;2023-04-24T15:01:48;2.53;;;1.00;;
22737;SDS011;11536;50.860;4.286;2023-04-24T15:04:14;5.88;;;1.15;;
22737;SDS011;11536;50.860;4.286;2023-04-24T15:06:40;3.58;;;0.88;;
22737;SDS011;11536;50.860;4.286;2023-04-24T15:09:06;3.15;;;0.70;;
22737;SDS011;11536;50.860;4.286;2023-04-24T15:11:32;4.28;;;1.13;;
22737;SDS011;11536;50.860;4.286;2023-04-24T15:13:58;2.20;;;0.70;;
22737;SDS011;11536;50.860;4.286;2023-04-24T15:16:24;2.53;;;0.70;;